Time;durP1;ratioP1;P1;durP2;ratioP2;P2;SDS_P1;SDS_P2;PMS_P1;PMS_P2;Temp;Humidity;BMP_temperature;BMP_pressure;BME280_temperature;BME280_humidity;BME280_pressure;Samples;Min_cycle;Max_cycle;Signal;HPM_P1;HPM_P2
2022/03/23 00:01:23;;;;;;;15.60;8.88;;;;;;;;;;5052876;28;20562;-63
2022/03/23 00:03:51;;;;;;;14.75;7.95;;;;;;;;;;5052736;28;20037;-62
2022/03/23 00:06:20;;;;;;;16.52;8.60;;;;;;;;;;5052812;28;20426;-62
2022/03/23 00:08:53;;;;;;;16.88;9.07;;;;;;;;;;5054236;28;20111;-63
2022/03/23 00:11:21;;;;;;;16.08;8.00;;;;;;;;;;5055586;28;20049;-62
2022/03/23 00:13:49;;;;;;;11.50;7.53;;;;;;;;;;5056291;28;20033;-62
2022/03/23 00:16:18;;;;;;;14.07;8.25;;;;;;;;;;5056514;28;20120;-63
2022/03/23 00:18:47;;;;;;;21.05;7.63;;;;;;;;;;5055830;28;20115;-63
2022/03/23 00:21:14;;;;;;;17.58;7.82;;;;;;;;;;5055637;28;20041;-63
2022/03/23 00:23:45;;;;;;;16.23;8.23;;;;;;;;;;5055777;28;20096;-63
2022/03/23 00:26:12;;;;;;;14.73;8.13;;;;;;;;;;5056074;28;20129;-63
2022/03/23 00:28:42;;;;;;;14.90;8.38;;;;;;;;;;5056434;28;20048;-63
2022/03/23 00:31:11;;;;;;;15.15;7.22;;;;;;;;;;5038183;28;20114;-63
2022/03/23 00:33:39;;;;;;;17.52;8.43;;;;;;;;;;5055544;28;20044;-63
2022/03/23 00:36:11;;;;;;;15.45;9.52;;;;;;;;;;5056369;28;20045;-63
2022/03/23 00:38:45;;;;;;;15.32;7.40;;;;;;;;;;5055944;28;20112;-63
2022/03/23 00:41:13;;;;;;;24.33;7.97;;;;;;;;;;5055776;28;20076;-63
2022/03/23 00:43:41;;;;;;;14.23;7.00;;;;;;;;;;5055649;28;20044;-63
2022/03/23 00:46:09;;;;;;;14.75;7.32;;;;;;;;;;5055123;28;20120;-63
2022/03/23 00:48:37;;;;;;;13.57;7.15;;;;;;;;;;5055811;28;20041;-62
2022/03/23 00:51:09;;;;;;;16.17;7.38;;;;;;;;;;5055962;28;20045;-63
2022/03/23 00:53:40;;;;;;;16.83;7.10;;;;;;;;;;5055812;28;20048;-64
2022/03/23 00:56:10;;;;;;;17.38;7.63;;;;;;;;;;5055187;28;20049;-63
2022/03/23 00:58:38;;;;;;;17.13;7.75;;;;;;;;;;5055601;28;20045;-64
2022/03/23 01:01:07;;;;;;;13.32;7.03;;;;;;;;;;5037634;28;20049;-64
2022/03/23 01:03:38;;;;;;;12.85;7.10;;;;;;;;;;5055976;28;20041;-64
2022/03/23 01:06:31;;;;;;;14.35;6.72;;;;;;;;;;5055464;28;20116;-64
2022/03/23 01:08:58;;;;;;;11.98;6.90;;;;;;;;;;5055647;28;20120;-64
2022/03/23 01:11:51;;;;;;;12.82;6.70;;;;;;;;;;5055308;28;20048;-64
2022/03/23 01:18:21;;;;;;;17.73;6.53;;;;;;;;;;5055295;28;20146;-64
2022/03/23 01:21:13;;;;;;;15.27;6.90;;;;;;;;;;5054838;28;20049;-64
2022/03/23 01:23:46;;;;;;;15.23;6.80;;;;;;;;;;5037210;28;20049;-65
2022/03/23 01:26:13;;;;;;;14.13;6.95;;;;;;;;;;5036107;28;20076;-63
2022/03/23 01:28:45;;;;;;;10.82;6.18;;;;;;;;;;5055723;28;20041;-64
2022/03/23 01:31:16;;;;;;;13.85;6.63;;;;;;;;;;5036327;28;20499;-63
2022/03/23 01:33:44;;;;;;;13.02;6.15;;;;;;;;;;5036985;28;20071;-63
2022/03/23 01:36:12;;;;;;;17.48;6.85;;;;;;;;;;5055079;28;20049;-63
2022/03/23 01:38:46;;;;;;;12.60;6.32;;;;;;;;;;5054169;28;20121;-63
2022/03/23 01:41:15;;;;;;;11.77;5.72;;;;;;;;;;5036983;28;20052;-63
2022/03/23 01:43:43;;;;;;;13.50;6.18;;;;;;;;;;5054946;28;20044;-63
2022/03/23 01:46:12;;;;;;;15.63;6.35;;;;;;;;;;5054471;28;20049;-63
2022/03/23 01:48:40;;;;;;;13.25;7.00;;;;;;;;;;5054653;28;20044;-63
2022/03/23 01:51:10;;;;;;;11.68;5.95;;;;;;;;;;5036622;28;20091;-64
2022/03/23 01:53:38;;;;;;;13.73;6.18;;;;;;;;;;5036052;28;20076;-64
2022/03/23 01:56:06;;;;;;;15.95;6.30;;;;;;;;;;5053887;28;20048;-63
2022/03/23 01:58:35;;;;;;;14.15;6.68;;;;;;;;;;5036357;28;20045;-63
2022/03/23 02:01:10;;;;;;;15.27;6.95;;;;;;;;;;5036451;28;20040;-63
2022/03/23 02:03:38;;;;;;;18.75;7.47;;;;;;;;;;5054891;28;20044;-63
2022/03/23 02:06:08;;;;;;;10.82;6.50;;;;;;;;;;5036492;28;20080;-63
2022/03/23 02:08:43;;;;;;;18.90;6.75;;;;;;;;;;5035211;28;20048;-63
2022/03/23 02:11:11;;;;;;;14.43;7.47;;;;;;;;;;5036182;28;20406;-63
2022/03/23 02:13:42;;;;;;;14.07;6.55;;;;;;;;;;5036787;28;20041;-63
2022/03/23 02:16:14;;;;;;;13.80;7.13;;;;;;;;;;5036344;28;20049;-63
2022/03/23 02:18:42;;;;;;;16.50;6.78;;;;;;;;;;5036252;28;20051;-63
2022/03/23 02:21:14;;;;;;;15.45;6.60;;;;;;;;;;5036060;28;20047;-64
2022/03/23 02:23:42;;;;;;;13.88;6.65;;;;;;;;;;5053208;28;20128;-64
2022/03/23 02:26:10;;;;;;;14.85;6.53;;;;;;;;;;5052688;28;20057;-64
2022/03/23 02:28:44;;;;;;;12.88;6.78;;;;;;;;;;5054212;28;20474;-64
2022/03/23 02:31:13;;;;;;;11.60;6.40;;;;;;;;;;5053327;28;20117;-64
2022/03/23 02:33:40;;;;;;;12.68;6.95;;;;;;;;;;5054054;28;20061;-64
2022/03/23 02:36:11;;;;;;;17.20;7.30;;;;;;;;;;5053833;28;20041;-64
2022/03/23 02:38:42;;;;;;;16.67;6.82;;;;;;;;;;5053598;28;20136;-64
2022/03/23 02:41:10;;;;;;;17.15;6.63;;;;;;;;;;5053749;28;20052;-65
2022/03/23 02:43:43;;;;;;;14.38;7.13;;;;;;;;;;5053490;28;20045;-64
2022/03/23 02:46:19;;;;;;;14.40;6.25;;;;;;;;;;5053920;28;20053;-64
2022/03/23 02:48:52;;;;;;;17.02;7.07;;;;;;;;;;5053687;28;20064;-64
2022/03/23 02:51:20;;;;;;;14.23;6.53;;;;;;;;;;5052418;28;20507;-65
2022/03/23 03:02:50;;;;;;;15.93;6.60;;;;;;;;;;5052506;28;20041;-64
2022/03/23 03:05:20;;;;;;;15.30;6.05;;;;;;;;;;5053169;28;20041;-64
2022/03/23 03:10:46;;;;;;;16.10;6.10;;;;;;;;;;5053549;28;20049;-64
2022/03/23 03:13:13;;;;;;;14.55;6.03;;;;;;;;;;5053337;28;20055;-64
2022/03/23 03:15:44;;;;;;;17.00;6.43;;;;;;;;;;5053342;28;20033;-64
2022/03/23 03:18:12;;;;;;;13.30;6.85;;;;;;;;;;5052320;28;20056;-64
2022/03/23 03:20:41;;;;;;;17.33;7.47;;;;;;;;;;5052313;28;20375;-64
2022/03/23 03:23:11;;;;;;;16.42;7.18;;;;;;;;;;5053261;28;20510;-64
2022/03/23 03:26:06;;;;;;;16.60;7.90;;;;;;;;;;5053046;28;20118;-64
2022/03/23 03:28:37;;;;;;;18.60;7.45;;;;;;;;;;5053447;28;20041;-64
2022/03/23 03:31:16;;;;;;;16.25;6.75;;;;;;;;;;5053260;28;20037;-64
2022/03/23 03:33:44;;;;;;;17.40;6.40;;;;;;;;;;5053472;28;20418;-64
2022/03/23 03:36:15;;;;;;;12.65;7.05;;;;;;;;;;5052694;28;20044;-64
2022/03/23 03:38:44;;;;;;;13.65;6.38;;;;;;;;;;5052109;28;20158;-64
2022/03/23 03:41:14;;;;;;;18.70;6.88;;;;;;;;;;5053472;28;20041;-64
2022/03/23 03:43:48;;;;;;;10.95;6.32;;;;;;;;;;5054607;28;20108;-64
2022/03/23 03:46:25;;;;;;;13.83;7.07;;;;;;;;;;5057092;28;20041;-64
2022/03/23 03:48:57;;;;;;;21.80;7.82;;;;;;;;;;5057207;28;20091;-64
2022/03/23 03:51:25;;;;;;;15.45;6.95;;;;;;;;;;5055924;28;20518;-64
2022/03/23 03:53:56;;;;;;;13.63;7.32;;;;;;;;;;5056839;28;20043;-64
2022/03/23 03:56:24;;;;;;;23.00;7.57;;;;;;;;;;5056905;28;20045;-64
2022/03/23 03:58:54;;;;;;;14.20;7.57;;;;;;;;;;5056984;28;20044;-64
2022/03/23 04:01:23;;;;;;;15.77;7.43;;;;;;;;;;5055790;28;20037;-64
2022/03/23 04:03:52;;;;;;;14.18;7.30;;;;;;;;;;5056724;28;20045;-64
2022/03/23 04:06:20;;;;;;;21.70;8.55;;;;;;;;;;5056692;28;20216;-64
2022/03/23 04:08:48;;;;;;;15.13;7.10;;;;;;;;;;5055607;28;20502;-64
2022/03/23 04:11:18;;;;;;;16.13;7.35;;;;;;;;;;5057046;28;20428;-64
2022/03/23 04:13:46;;;;;;;17.95;7.53;;;;;;;;;;5056549;28;20399;-64
2022/03/23 04:16:15;;;;;;;19.23;7.97;;;;;;;;;;5056479;28;20045;-64
2022/03/23 04:18:43;;;;;;;14.82;7.20;;;;;;;;;;5056449;28;20045;-64
2022/03/23 04:21:11;;;;;;;12.82;7.82;;;;;;;;;;5056026;28;20037;-64
2022/03/23 04:23:41;;;;;;;18.13;7.68;;;;;;;;;;5056100;28;20574;-64
2022/03/23 04:26:10;;;;;;;18.67;8.57;;;;;;;;;;5056080;28;20049;-64
2022/03/23 04:28:40;;;;;;;19.35;8.35;;;;;;;;;;5055936;28;20052;-64
2022/03/23 04:31:11;;;;;;;19.77;9.02;;;;;;;;;;5056383;28;20064;-64
2022/03/23 04:33:39;;;;;;;18.70;8.73;;;;;;;;;;5055702;28;20487;-64
2022/03/23 04:36:07;;;;;;;22.05;8.93;;;;;;;;;;5056225;28;20037;-64
2022/03/23 04:38:34;;;;;;;21.85;8.60;;;;;;;;;;5055358;28;20053;-64
2022/03/23 04:41:04;;;;;;;16.05;8.32;;;;;;;;;;5055910;28;20052;-64
2022/03/23 04:43:56;;;;;;;64.60;11.02;;;;;;;;;;5056487;28;20033;-64
2022/03/23 04:46:28;;;;;;;24.75;9.18;;;;;;;;;;5055628;28;20068;-64
2022/03/23 04:48:56;;;;;;;24.77;9.35;;;;;;;;;;5055642;28;20045;-64
2022/03/23 04:51:24;;;;;;;18.83;8.82;;;;;;;;;;5056020;28;20147;-64
2022/03/23 04:53:52;;;;;;;17.85;9.50;;;;;;;;;;5054937;28;20063;-64
2022/03/23 04:56:23;;;;;;;18.33;9.35;;;;;;;;;;5055818;28;20503;-64
2022/03/23 04:58:51;;;;;;;23.52;9.82;;;;;;;;;;5055733;28;20135;-64
2022/03/23 05:01:19;;;;;;;24.52;11.43;;;;;;;;;;5055569;28;20530;-64
2022/03/23 05:03:47;;;;;;;27.58;10.75;;;;;;;;;;5055581;28;20041;-64
2022/03/23 05:06:15;;;;;;;21.73;10.52;;;;;;;;;;5054598;28;20048;-65
2022/03/23 05:08:45;;;;;;;22.75;8.73;;;;;;;;;;5054378;28;20036;-64
2022/03/23 05:11:13;;;;;;;21.58;9.13;;;;;;;;;;5055562;28;20036;-64
2022/03/23 05:13:41;;;;;;;17.05;9.40;;;;;;;;;;5055177;28;20056;-64
2022/03/23 05:16:12;;;;;;;17.13;9.30;;;;;;;;;;5055132;28;20041;-64
2022/03/23 05:18:42;;;;;;;19.25;8.82;;;;;;;;;;5055237;28;20037;-65
2022/03/23 05:21:34;;;;;;;18.52;8.80;;;;;;;;;;5055226;28;20037;-64
2022/03/23 05:24:01;;;;;;;17.20;9.13;;;;;;;;;;5055105;28;20060;-65
2022/03/23 05:26:29;;;;;;;20.40;9.38;;;;;;;;;;5054276;28;20131;-65
2022/03/23 05:29:19;;;;;;;18.45;9.15;;;;;;;;;;5055079;28;20053;-64
2022/03/23 05:35:51;;;;;;;16.58;9.13;;;;;;;;;;5053972;28;20534;-65
2022/03/23 05:38:19;;;;;;;17.95;10.27;;;;;;;;;;5054315;28;20080;-65
2022/03/23 05:40:47;;;;;;;19.80;11.38;;;;;;;;;;5053929;28;20124;-64
2022/03/23 05:43:19;;;;;;;17.10;9.80;;;;;;;;;;5054848;28;20048;-65
2022/03/23 05:45:47;;;;;;;16.58;9.27;;;;;;;;;;5053734;28;20041;-65
2022/03/23 05:48:14;;;;;;;17.58;9.23;;;;;;;;;;5053581;28;20369;-65
2022/03/23 05:50:42;;;;;;;14.73;8.68;;;;;;;;;;5053977;28;20514;-66
2022/03/23 05:53:09;;;;;;;16.35;8.98;;;;;;;;;;5054536;28;20037;-65
2022/03/23 05:55:37;;;;;;;22.48;9.73;;;;;;;;;;5053681;28;20037;-65
2022/03/23 05:58:07;;;;;;;13.43;8.45;;;;;;;;;;5053464;28;20116;-65
2022/03/23 06:00:36;;;;;;;18.75;8.73;;;;;;;;;;5054405;28;20503;-65
2022/03/23 06:03:03;;;;;;;17.25;8.23;;;;;;;;;;5054155;28;20044;-65
2022/03/23 06:05:35;;;;;;;18.52;9.00;;;;;;;;;;5054287;28;20045;-65
2022/03/23 06:08:02;;;;;;;16.25;9.43;;;;;;;;;;5053907;28;20451;-65
2022/03/23 06:10:38;;;;;;;17.17;8.10;;;;;;;;;;5054396;28;20049;-65
2022/03/23 06:13:30;;;;;;;15.63;8.82;;;;;;;;;;5054291;28;20095;-65
2022/03/23 06:16:00;;;;;;;15.27;8.80;;;;;;;;;;5054101;28;20514;-64
2022/03/23 06:18:27;;;;;;;15.93;7.60;;;;;;;;;;5054454;28;20048;-64
2022/03/23 06:21:20;;;;;;;16.92;8.20;;;;;;;;;;5054145;28;20045;-64
2022/03/23 06:23:49;;;;;;;16.48;8.00;;;;;;;;;;5054105;28;20091;-65
2022/03/23 06:26:26;;;;;;;14.30;8.48;;;;;;;;;;5054389;28;20450;-64
2022/03/23 06:28:57;;;;;;;15.40;7.80;;;;;;;;;;5054121;28;20462;-65
2022/03/23 06:31:29;;;;;;;15.00;8.02;;;;;;;;;;5054324;28;20131;-64
2022/03/23 06:34:05;;;;;;;12.68;8.10;;;;;;;;;;5054082;28;20094;-64
2022/03/23 06:36:37;;;;;;;15.65;7.75;;;;;;;;;;5053985;28;20033;-64
2022/03/23 06:39:11;;;;;;;11.43;7.18;;;;;;;;;;5053736;28;20045;-64
2022/03/23 06:41:41;;;;;;;;;;;;;;;;;;5054104;28;20120;-64
2022/03/23 06:44:48;;;;;;;12.23;7.30;;;;;;;;;;5053956;28;19979;-64
2022/03/23 06:47:16;;;;;;;13.98;8.55;;;;;;;;;;5053696;28;20456;-65
2022/03/23 06:49:52;;;;;;;16.05;8.38;;;;;;;;;;5053322;28;20041;-65
2022/03/23 06:52:20;;;;;;;12.65;7.85;;;;;;;;;;5035970;28;20098;-65
2022/03/23 06:54:49;;;;;;;12.15;7.65;;;;;;;;;;5053614;28;20037;-65
2022/03/23 06:57:21;;;;;;;15.80;9.80;;;;;;;;;;5053776;28;20116;-65
2022/03/23 06:59:49;;;;;;;12.82;7.43;;;;;;;;;;5053376;28;20037;-65
2022/03/23 07:02:19;;;;;;;12.32;6.93;;;;;;;;;;5053706;28;20044;-65
2022/03/23 07:04:50;;;;;;;13.15;6.10;;;;;;;;;;5053478;28;20135;-65
2022/03/23 07:07:20;;;;;;;11.80;6.55;;;;;;;;;;5053409;28;20047;-66
2022/03/23 07:09:47;;;;;;;19.70;11.90;;;;;;;;;;5053023;28;20045;-66
2022/03/23 07:12:21;;;;;;;13.15;7.47;;;;;;;;;;5053484;28;20048;-65
2022/03/23 07:14:50;;;;;;;16.42;10.48;;;;;;;;;;5052937;28;20049;-66
2022/03/23 07:17:20;;;;;;;9.00;5.55;;;;;;;;;;5052945;28;20383;-66
2022/03/23 07:19:56;;;;;;;15.60;6.93;;;;;;;;;;5053156;28;20061;-66
2022/03/23 07:22:24;;;;;;;13.32;8.88;;;;;;;;;;5053389;28;20077;-65
2022/03/23 07:24:51;;;;;;;13.13;6.05;;;;;;;;;;5052881;28;20053;-66
2022/03/23 07:27:44;;;;;;;11.15;6.65;;;;;;;;;;5053105;28;20071;-65
2022/03/23 07:30:16;;;;;;;9.80;5.25;;;;;;;;;;5053468;28;20064;-65
2022/03/23 07:32:53;;;;;;;11.48;5.50;;;;;;;;;;5052979;28;20086;-65
2022/03/23 07:35:21;;;;;;;13.18;7.00;;;;;;;;;;5053412;28;20064;-66
2022/03/23 07:38:14;;;;;;;10.40;6.50;;;;;;;;;;5053270;28;20502;-65
2022/03/23 07:40:46;;;;;;;10.20;6.70;;;;;;;;;;5052880;28;20120;-65
2022/03/23 07:43:19;;;;;;;12.55;8.23;;;;;;;;;;5052957;28;20037;-65
2022/03/23 07:45:51;;;;;;;14.48;6.57;;;;;;;;;;5053349;28;20132;-64
2022/03/23 07:48:20;;;;;;;8.25;4.80;;;;;;;;;;5053116;28;20056;-64
2022/03/23 07:51:13;;;;;;;7.53;3.78;;;;;;;;;;5052957;28;20049;-64
2022/03/23 07:53:46;;;;;;;8.20;4.32;;;;;;;;;;5052966;28;20075;-64
2022/03/23 07:56:13;;;;;;;14.68;5.90;;;;;;;;;;5053064;28;20097;-64
2022/03/23 07:59:06;;;;;;;18.98;8.88;;;;;;;;;;5052906;28;20052;-64
2022/03/23 08:01:38;;;;;;;9.02;3.60;;;;;;;;;;5052831;28;20038;-64
2022/03/23 08:04:05;;;;;;;8.73;3.78;;;;;;;;;;5052251;28;20080;-64
2022/03/23 08:06:35;;;;;;;8.48;4.60;;;;;;;;;;5034694;28;20041;-64
2022/03/23 08:09:07;;;;;;;13.35;6.07;;;;;;;;;;5052829;28;20155;-64
2022/03/23 08:11:45;;;;;;;10.50;5.57;;;;;;;;;;5052511;28;20065;-64
2022/03/23 08:14:12;;;;;;;16.33;5.35;;;;;;;;;;5052602;28;20446;-64
2022/03/23 08:16:41;;;;;;;9.38;4.43;;;;;;;;;;5052668;28;20449;-64
2022/03/23 08:19:11;;;;;;;12.35;5.32;;;;;;;;;;5052474;28;20052;-64
2022/03/23 08:21:44;;;;;;;17.30;5.40;;;;;;;;;;5052627;28;20053;-64
2022/03/23 08:24:12;;;;;;;16.05;7.35;;;;;;;;;;5052656;28;20135;-64
2022/03/23 08:26:42;;;;;;;12.73;6.10;;;;;;;;;;5052341;28;20044;-65
2022/03/23 08:29:40;;;;;;;13.18;5.90;;;;;;;;;;5140049;22;20129;-63
2022/03/23 08:32:08;;;;;;;13.18;5.20;;;;;;;;;;5036516;28;20046;-64
2022/03/23 08:34:35;;;;;;;22.65;8.80;;;;;;;;;;5036238;28;20045;-64
2022/03/23 08:37:03;;;;;;;9.40;4.90;;;;;;;;;;5036258;28;20073;-64
2022/03/23 08:39:30;;;;;;;11.02;4.82;;;;;;;;;;5036439;28;20037;-64
2022/03/23 08:41:58;;;;;;;12.27;5.20;;;;;;;;;;5036120;28;20072;-64
2022/03/23 08:44:25;;;;;;;9.20;4.13;;;;;;;;;;5035897;28;20033;-64
2022/03/23 08:46:53;;;;;;;9.35;3.75;;;;;;;;;;5036129;28;20087;-64
2022/03/23 08:49:24;;;;;;;15.25;5.32;;;;;;;;;;5035820;28;20095;-64
2022/03/23 08:51:51;;;;;;;12.38;5.63;;;;;;;;;;5036275;28;20037;-64
2022/03/23 08:54:19;;;;;;;9.32;5.13;;;;;;;;;;5036033;28;20045;-64
2022/03/23 08:56:46;;;;;;;13.82;5.85;;;;;;;;;;5035783;28;20045;-64
2022/03/23 08:59:14;;;;;;;7.00;3.95;;;;;;;;;;5035714;28;20078;-64
2022/03/23 09:01:41;;;;;;;14.85;4.07;;;;;;;;;;5036070;28;20053;-64
2022/03/23 09:04:10;;;;;;;11.63;4.43;;;;;;;;;;5035633;28;20033;-64
2022/03/23 09:06:38;;;;;;;10.02;3.80;;;;;;;;;;5035981;28;20116;-64
2022/03/23 09:09:05;;;;;;;12.35;3.92;;;;;;;;;;5035716;28;20052;-65
2022/03/23 09:11:33;;;;;;;8.85;3.97;;;;;;;;;;5035676;28;20125;-65
2022/03/23 09:14:00;;;;;;;12.75;4.65;;;;;;;;;;5035747;28;20038;-65
2022/03/23 09:16:28;;;;;;;11.55;4.55;;;;;;;;;;5035440;28;20116;-65
2022/03/23 09:18:56;;;;;;;12.93;5.72;;;;;;;;;;5033949;28;20415;-65
2022/03/23 09:21:23;;;;;;;8.82;4.65;;;;;;;;;;5035483;28;20065;-65
2022/03/23 09:23:51;;;;;;;9.88;4.20;;;;;;;;;;5035269;28;20052;-65
2022/03/23 09:26:18;;;;;;;9.07;4.28;;;;;;;;;;5035397;28;20128;-66
2022/03/23 09:28:46;;;;;;;10.25;3.83;;;;;;;;;;5035390;28;20053;-65
2022/03/23 09:31:14;;;;;;;6.95;3.67;;;;;;;;;;5035304;28;20056;-65
2022/03/23 09:33:42;;;;;;;12.30;4.63;;;;;;;;;;5035192;28;20518;-65
2022/03/23 09:38:56;;;;;;;9.35;5.03;;;;;;;;;;5034895;28;20132;-65
2022/03/23 09:41:24;;;;;;;15.63;5.43;;;;;;;;;;5033363;28;20041;-65
2022/03/23 09:43:52;;;;;;;12.15;4.45;;;;;;;;;;5034958;28;20045;-65
2022/03/23 09:46:20;;;;;;;8.65;3.83;;;;;;;;;;5034827;28;20064;-65
2022/03/23 09:48:47;;;;;;;9.00;4.40;;;;;;;;;;5034799;28;20053;-65
2022/03/23 09:51:15;;;;;;;7.78;4.15;;;;;;;;;;5034741;28;20054;-65
2022/03/23 09:53:43;;;;;;;9.98;5.05;;;;;;;;;;5034569;28;20049;-65
2022/03/23 09:56:10;;;;;;;10.57;4.68;;;;;;;;;;5035143;28;20050;-65
2022/03/23 09:58:38;;;;;;;9.43;4.47;;;;;;;;;;5034538;28;20048;-65
2022/03/23 10:01:22;;;;;;;10.70;4.25;;;;;;;;;;5034618;28;20042;-65
2022/03/23 10:03:56;;;;;;;8.45;4.68;;;;;;;;;;5034291;28;20046;-66
2022/03/23 10:06:39;;;;;;;8.45;4.10;;;;;;;;;;5034502;28;20537;-66
2022/03/23 10:09:24;;;;;;;13.77;4.70;;;;;;;;;;5034591;28;20099;-65
2022/03/23 10:12:10;;;;;;;8.10;4.57;;;;;;;;;;5034570;28;20121;-65
2022/03/23 10:14:47;;;;;;;8.93;4.38;;;;;;;;;;5034221;28;20041;-65
2022/03/23 10:17:33;;;;;;;9.02;4.47;;;;;;;;;;5034556;28;20037;-65
2022/03/23 10:20:01;;;;;;;8.10;4.20;;;;;;;;;;5034367;28;20551;-65
2022/03/23 10:22:29;;;;;;;10.48;4.88;;;;;;;;;;5033973;28;20045;-65
2022/03/23 10:24:56;;;;;;;9.27;4.60;;;;;;;;;;5034163;28;20530;-66
2022/03/23 10:27:32;;;;;;;6.68;4.40;;;;;;;;;;5034166;28;20034;-65
2022/03/23 10:29:59;;;;;;;11.73;4.80;;;;;;;;;;5033380;28;20120;-66
2022/03/23 10:32:34;;;;;;;12.15;4.50;;;;;;;;;;5033757;28;20041;-64
2022/03/23 10:35:02;;;;;;;7.68;4.60;;;;;;;;;;5034269;28;20038;-65
2022/03/23 10:37:30;;;;;;;9.07;4.30;;;;;;;;;;5033820;28;20490;-64
2022/03/23 10:39:59;;;;;;;13.70;5.25;;;;;;;;;;5033688;28;20489;-64
2022/03/23 10:42:28;;;;;;;8.85;4.65;;;;;;;;;;5034426;28;20120;-64
2022/03/23 10:45:03;;;;;;;13.88;4.97;;;;;;;;;;5033595;28;20041;-64
2022/03/23 10:47:32;;;;;;;12.70;6.47;;;;;;;;;;5033879;28;20065;-64
2022/03/23 10:50:10;;;;;;;13.13;5.95;;;;;;;;;;5033900;28;20045;-64
2022/03/23 10:52:48;;;;;;;9.68;4.60;;;;;;;;;;5033136;28;20045;-65
2022/03/23 10:55:17;;;;;;;8.20;4.45;;;;;;;;;;5033515;28;20049;-65
2022/03/23 10:57:44;;;;;;;10.13;4.95;;;;;;;;;;5033637;28;20046;-65
2022/03/23 11:00:18;;;;;;;9.32;4.72;;;;;;;;;;5033495;28;20479;-64
2022/03/23 11:02:49;;;;;;;7.55;4.03;;;;;;;;;;5033275;28;20438;-64
2022/03/23 11:05:32;;;;;;;9.10;3.90;;;;;;;;;;5033375;28;20037;-65
2022/03/23 11:08:07;;;;;;;8.07;4.05;;;;;;;;;;5033474;28;20045;-65
2022/03/23 11:16:09;;;;;;;8.63;4.03;;;;;;;;;;5033222;28;20053;-64
2022/03/23 11:18:37;;;;;;;6.25;3.67;;;;;;;;;;5033510;28;20124;-65
2022/03/23 11:21:05;;;;;;;7.70;4.13;;;;;;;;;;5033216;28;20077;-65
2022/03/23 11:23:35;;;;;;;8.77;3.90;;;;;;;;;;5033171;28;20100;-64
2022/03/23 11:26:02;;;;;;;5.97;3.75;;;;;;;;;;5033217;28;20104;-64
2022/03/23 11:28:35;;;;;;;7.30;3.67;;;;;;;;;;5033403;28;20053;-65
2022/03/23 11:31:08;;;;;;;11.25;4.45;;;;;;;;;;5044034;28;20067;-65
2022/03/23 11:33:36;;;;;;;8.18;3.90;;;;;;;;;;5052895;28;20045;-64
2022/03/23 11:36:10;;;;;;;8.40;3.83;;;;;;;;;;5053067;28;20037;-64
2022/03/23 11:38:39;;;;;;;8.20;3.72;;;;;;;;;;5053130;28;20044;-63
2022/03/23 11:41:06;;;;;;;8.20;3.80;;;;;;;;;;5053263;28;20060;-65
2022/03/23 11:43:36;;;;;;;6.40;3.65;;;;;;;;;;5053069;28;20466;-64
2022/03/23 11:46:23;;;;;;;10.18;3.97;;;;;;;;;;5052851;28;20067;-64
2022/03/23 11:49:09;;;;;;;6.00;3.60;;;;;;;;;;5052812;28;20053;-64
2022/03/23 11:51:55;;;;;;;7.93;3.95;;;;;;;;;;5053196;28;20128;-64
2022/03/23 11:54:22;;;;;;;14.30;4.43;;;;;;;;;;5053414;28;20375;-64
2022/03/23 11:56:55;;;;;;;9.38;4.20;;;;;;;;;;5053105;28;20056;-64
2022/03/23 11:59:24;;;;;;;7.43;4.15;;;;;;;;;;5052448;28;20068;-66
2022/03/23 12:01:53;;;;;;;9.90;4.60;;;;;;;;;;5038651;28;20442;-64
2022/03/23 12:04:26;;;;;;;7.55;3.50;;;;;;;;;;5033600;28;20061;-65
2022/03/23 12:07:09;;;;;;;7.65;4.10;;;;;;;;;;5037521;28;20128;-64
2022/03/23 12:09:42;;;;;;;10.15;5.28;;;;;;;;;;5036867;28;20132;-64
2022/03/23 12:12:28;;;;;;;12.40;5.88;;;;;;;;;;5036900;28;20096;-69
2022/03/23 12:15:18;;;;;;;7.30;4.53;;;;;;;;;;5018345;28;20065;-69
2022/03/23 12:18:03;;;;;;;9.55;4.00;;;;;;;;;;5036789;28;20506;-70
2022/03/23 12:20:40;;;;;;;8.05;4.40;;;;;;;;;;5036216;28;20041;-69
2022/03/23 12:26:35;;;;;;;7.53;4.30;;;;;;;;;;5036770;28;20061;-71
2022/03/23 12:29:33;;;;;;;10.77;4.28;;;;;;;;;;5046200;28;20127;-73
2022/03/23 12:32:05;;;;;;;6.53;3.65;;;;;;;;;;5034673;28;20069;-71
2022/03/23 12:34:51;;;;;;;8.15;3.72;;;;;;;;;;5036340;28;20407;-71
2022/03/23 12:37:20;;;;;;;10.00;5.38;;;;;;;;;;5036282;28;20377;-70
2022/03/23 12:40:06;;;;;;;8.15;3.67;;;;;;;;;;5035833;28;20385;-73
2022/03/23 12:42:34;;;;;;;11.52;3.75;;;;;;;;;;5035615;28;20037;-74
2022/03/23 12:58:51;;;;;;;15.07;5.00;;;;;;;;;;5036031;28;20049;-74
2022/03/23 13:05:05;;;;;;;8.43;3.40;;;;;;;;;;5035372;28;20025;-74
2022/03/23 13:07:52;;;;;;;7.22;3.67;;;;;;;;;;5035360;28;20042;-73
2022/03/23 13:10:24;;;;;;;7.47;3.50;;;;;;;;;;5034900;28;20060;-73
2022/03/23 13:13:08;;;;;;;8.40;3.38;;;;;;;;;;5035172;28;20491;-73
2022/03/23 13:16:01;;;;;;;7.72;3.70;;;;;;;;;;5035160;28;20394;-74
2022/03/23 13:18:31;;;;;;;12.50;4.10;;;;;;;;;;5035616;28;20424;-73
2022/03/23 13:20:59;;;;;;;8.43;4.45;;;;;;;;;;5035206;28;20033;-73
2022/03/23 13:23:33;;;;;;;9.82;4.10;;;;;;;;;;5034144;28;20116;-72
2022/03/23 13:26:03;;;;;;;8.88;3.72;;;;;;;;;;5035982;28;20492;-72
2022/03/23 13:28:35;;;;;;;8.15;3.60;;;;;;;;;;5035066;28;20099;-72
2022/03/23 13:31:05;;;;;;;8.40;3.70;;;;;;;;;;5034970;28;20484;-72
2022/03/23 13:33:43;;;;;;;11.27;3.80;;;;;;;;;;5035127;28;20037;-72
2022/03/23 13:36:15;;;;;;;7.22;3.35;;;;;;;;;;5034914;28;20045;-72
2022/03/23 13:38:44;;;;;;;9.98;4.13;;;;;;;;;;5034747;28;20053;-72
2022/03/23 13:43:59;;;;;;;8.00;3.47;;;;;;;;;;5035234;28;20048;-73
2022/03/23 13:46:28;;;;;;;12.52;5.85;;;;;;;;;;5034647;28;20042;-73
2022/03/23 13:49:25;;;;;;;14.23;6.95;;;;;;;;;;5035081;28;20053;-72
2022/03/23 13:51:52;;;;;;;7.43;3.85;;;;;;;;;;5026301;28;20136;-72
2022/03/23 13:54:21;;;;;;;8.27;3.50;;;;;;;;;;5034745;28;20041;-72
2022/03/23 13:56:50;;;;;;;6.05;3.75;;;;;;;;;;5034850;28;20045;-72
2022/03/23 13:59:18;;;;;;;5.15;3.00;;;;;;;;;;5034715;28;20483;-72
2022/03/23 14:01:47;;;;;;;7.72;3.42;;;;;;;;;;5034795;28;20042;-73
2022/03/23 14:04:16;;;;;;;8.00;3.67;;;;;;;;;;5034416;28;20042;-72
2022/03/23 14:06:52;;;;;;;6.82;3.63;;;;;;;;;;5034610;28;20479;-72
2022/03/23 14:09:22;;;;;;;13.18;3.72;;;;;;;;;;5034814;28;20061;-72
2022/03/23 14:14:31;;;;;;;9.75;4.38;;;;;;;;;;5034181;28;20034;-73
2022/03/23 14:17:03;;;;;;;10.32;5.85;;;;;;;;;;5034591;28;20447;-73
2022/03/23 14:19:33;;;;;;;9.32;3.55;;;;;;;;;;5034021;28;20061;-72
2022/03/23 14:22:06;;;;;;;7.68;3.60;;;;;;;;;;5032845;28;20376;-72
2022/03/23 14:24:34;;;;;;;9.38;3.50;;;;;;;;;;5034227;28;20045;-72
2022/03/23 14:27:28;;;;;;;9.32;4.10;;;;;;;;;;5033779;28;20039;-72
2022/03/23 14:32:29;;;;;;;10.82;5.40;;;;;;;;;;5034402;28;20041;-72
2022/03/23 14:34:57;;;;;;;12.20;5.10;;;;;;;;;;5034524;28;20042;-72
2022/03/23 14:37:57;;;;;;;9.25;4.57;;;;;;;;;;5033868;28;20492;-73
2022/03/23 14:40:31;;;;;;;7.40;4.03;;;;;;;;;;5011390;28;20430;-73
2022/03/23 14:43:03;;;;;;;10.27;4.43;;;;;;;;;;5033692;28;20068;-73
2022/03/23 14:45:41;;;;;;;11.23;4.18;;;;;;;;;;5033649;28;20045;-74
2022/03/23 14:48:15;;;;;;;7.82;3.47;;;;;;;;;;5033783;28;20480;-73
2022/03/23 14:50:57;;;;;;;6.75;3.72;;;;;;;;;;5034048;28;20045;-73
2022/03/23 14:53:26;;;;;;;10.15;4.70;;;;;;;;;;5033972;28;20076;-73
2022/03/23 14:55:58;;;;;;;6.25;4.13;;;;;;;;;;5034155;28;20442;-73
2022/03/23 14:58:32;;;;;;;8.82;4.78;;;;;;;;;;5033564;28;20087;-73
2022/03/23 15:01:02;;;;;;;10.77;5.47;;;;;;;;;;5033215;28;20132;-73
2022/03/23 15:03:55;;;;;;;8.40;4.28;;;;;;;;;;5033709;28;20041;-73
2022/03/23 15:14:46;;;;;;;6.95;4.10;;;;;;;;;;5025668;28;20073;-78
2022/03/23 15:17:14;;;;;;;8.32;4.75;;;;;;;;;;5016015;28;20053;-77
2022/03/23 15:19:41;;;;;;;13.50;5.82;;;;;;;;;;5013478;28;20124;-77
2022/03/23 15:22:09;;;;;;;14.30;8.43;;;;;;;;;;5014102;28;20092;-76
2022/03/23 15:24:37;;;;;;;22.00;10.32;;;;;;;;;;5013778;28;20046;-76
2022/03/23 15:27:04;;;;;;;17.38;6.80;;;;;;;;;;5013641;28;20536;-76
2022/03/23 15:29:32;;;;;;;26.27;13.73;;;;;;;;;;5013558;28;20128;-76
2022/03/23 15:32:00;;;;;;;18.23;7.97;;;;;;;;;;5013382;28;20058;-76
2022/03/23 15:34:27;;;;;;;54.58;32.33;;;;;;;;;;5013161;28;20097;-79
2022/03/23 15:36:56;;;;;;;10.52;5.68;;;;;;;;;;5013409;28;20050;-80
2022/03/23 15:39:23;;;;;;;12.20;5.60;;;;;;;;;;5015888;28;20042;-80
2022/03/23 15:41:53;;;;;;;9.27;4.65;;;;;;;;;;5017998;28;20038;-79
2022/03/23 15:44:22;;;;;;;9.82;5.22;;;;;;;;;;5019349;28;20057;-78
2022/03/23 15:46:49;;;;;;;9.15;5.20;;;;;;;;;;5016623;28;20080;-79
2022/03/23 15:49:17;;;;;;;13.70;5.43;;;;;;;;;;5017199;28;20041;-78
2022/03/23 15:51:45;;;;;;;10.07;5.15;;;;;;;;;;5017173;28;20040;-79
2022/03/23 15:54:14;;;;;;;8.80;5.30;;;;;;;;;;5017346;28;20050;-78
2022/03/23 15:56:43;;;;;;;18.83;11.23;;;;;;;;;;5017064;28;20038;-80
2022/03/23 15:59:11;;;;;;;18.73;12.20;;;;;;;;;;5017233;28;20069;-80
2022/03/23 16:01:38;;;;;;;14.57;10.57;;;;;;;;;;5020037;28;20060;-80
2022/03/23 16:04:07;;;;;;;15.32;9.50;;;;;;;;;;5026716;28;20061;-80
2022/03/23 16:06:35;;;;;;;24.70;9.85;;;;;;;;;;5016823;28;20447;-80